Date,TemperatureHighF,TemperatureAvgF,TemperatureLowF,DewpointHighF,DewpointAvgF,DewpointLowF,HumidityHigh,HumidityAvg,HumidityLow,PressureMaxIn,PressureMinIn,WindSpeedMaxMPH,WindSpeedAvgMPH,GustSpeedMaxMPH,PrecipitationSumIn
2014-1-1,20,16,12,6,0,-6,63,48,32,31.68,29.90,18,5,18,0.00
2014-1-2,16,13,4,6,3,-7,67,64,60,30.30,29.50,15,3,15,0.00
2014-1-3,8,0,-12,-6,-14,-27,62,51,35,30.12,29.48,27,8,27,0.00
2014-1-4,32,12,-12,0,-14,-27,62,33,18,30.12,29.90,21,5,21,0.00
2014-1-5,45,30,8,41,15,-9,87,56,19,30.01,29.48,22,5,22,0.60
2014-1-6,53,36,7,48,26,-5,88,69,41,29.49,29.07,26,5,26,0.83
2014-1-7,7,0,-3,-1,-27,-34,97,26,19,29.91,29.35,30,4,30,0.00
2014-1-8,9,2,0,-13,-18,-24,44,37,29,30.15,29.91,20,6,20,0.00
2014-1-9,21,12,10,7,1,-2,65,61,52,30.30,30.24,11,3,11,0.00
2014-1-10,41,32,21,31,20,0,81,63,36,30.25,29.91,19,4,19,0.00
2014-1-11,57,50,36,52,44,31,86,81,67,30.16,29.03,23,6,23,1.22
2014-1-12,43,35,30,34,22,17,71,60,52,29.76,29.11,27,11,27,0.00
2014-1-13,51,39,25,30,20,11,73,50,20,29.83,29.56,21,5,21,0.00
2014-1-14,50,42,33,38,34,28,86,74,49,29.59,29.44,19,4,19,0.27
2014-1-15,45,35,27,33,27,21,83,73,52,29.70,26.38,11,2,11,0.01
2014-1-16,34,27,23,27,17,15,79,68,60,29.70,29.60,13,4,13,0.00
2014-1-17,37,27,16,21,14,8,74,61,34,29.67,29.60,11,2,11,0.02
2014-1-18,29,23,20,23,15,11,78,70,63,29.63,25.37,20,5,20,0.00
2014-1-19,29,24,18,14,10,5,70,54,40,29.52,29.23,27,6,27,0.00
2014-1-20,34,27,13,23,14,0,77,56,49,29.63,29.24,21,8,29,0.00
2014-1-21,13,7,0,0,-12,-22,55,40,24,31.29,29.39,16,7,16,0.00
2014-1-22,7,0,-7,-18,-22,-26,48,36,24,29.67,29.24,34,8,34,0.00
2014-1-23,10,3,-5,-8,-16,-20,52,41,27,29.90,29.26,20,7,20,0.00
2014-1-24,12,6,1,-14,-18,-24,45,31,19,29.99,29.57,20,7,20,0.00
2014-1-25,20,15,11,6,-3,-18,63,47,23,29.68,29.03,21,7,21,0.00
2014-1-26,23,12,4,6,-11,-23,63,36,21,29.89,29.09,27,7,27,0.00
2014-1-27,42,24,6,28,0,-25,72,37,18,29.99,29.21,30,10,30,0.01
2014-1-28,11,5,-1,-21,-26,-31,33,22,18,30.00,29.75,20,7,20,0.00
2014-1-29,17,9,-5,-12,-20,-24,45,27,18,29.81,29.68,17,5,17,0.00
2014-1-30,26,16,-2,-8,-13,-20,48,27,19,30.11,29.23,21,5,21,0.00
2014-1-31,34,30,25,15,4,-13,54,35,17,29.99,29.71,19,6,21,0.00
2014-2-1,40,32,21,24,16,11,66,52,38,30.07,29.69,30,4,30,0.00
2014-2-2,47,38,29,32,26,17,79,61,31,29.98,29.61,23,5,23,0.07
2014-2-3,29,23,9,19,13,-2,76,65,59,30.06,29.86,16,5,16,0.00
2014-2-4,24,12,0,11,1,-12,63,61,54,30.18,29.99,7,2,7,0.00
2014-2-5,26,22,19,19,14,10,74,71,61,30.02,29.37,18,4,18,0.00
2014-2-6,25,13,0,14,-3,-13,72,50,24,30.09,29.70,17,5,17,0.00
2014-2-7,28,11,-4,2,-10,-17,63,40,19,30.20,29.87,16,4,16,0.00
2014-2-8,25,11,-8,-2,-12,-24,53,38,18,30.02,29.40,12,3,12,0.00
2014-2-9,24,15,1,7,-1,-14,62,49,30,29.99,29.63,18,4,18,0.01
2014-2-10,19,14,3,5,-3,-10,63,48,31,29.95,29.63,21,8,21,0.00
2014-2-11,17,10,3,-6,-9,-13,53,42,27,30.19,29.94,21,8,21,0.00
2014-2-12,24,11,-7,5,-13,-21,55,35,17,30.26,29.64,22,6,22,0.00
2014-2-13,28,24,19,20,16,-5,77,72,55,30.02,28.86,30,4,30,0.00
2014-2-14,30,26,15,21,15,-11,79,65,29,30.04,28.76,30,11,30,0.01
2014-2-15,30,24,18,21,14,5,73,66,47,29.51,29.40,32,6,32,0.01
2014-2-16,20,15,12,7,-1,-5,61,49,34,29.62,29.42,31,12,31,0.00
2014-2-17,11,6,3,-16,-18,-22,39,32,21,30.06,29.93,21,11,21,0.00
2014-2-18,32,25,16,22,13,-14,76,60,21,29.87,29.44,22,7,22,0.01
2014-2-19,16,14,12,7,5,2,67,66,62,29.80,29.68,7,2,7,0.00
2014-2-20,49,48,48,11,10,10,21,21,21,29.94,29.93,8,5,8,0.00
2014-2-22,49,44,41,13,8,4,30,22,18,29.72,29.60,26,6,26,0.00
2014-2-23,42,39,35,19,17,13,46,40,30,29.76,29.72,15,5,15,0.00